createdAt,value
2022-11-20T00:01:36.166Z,1.70
2022-11-20T00:04:03.864Z,1.80
2022-11-20T00:06:33.074Z,1.80
2022-11-20T00:09:02.691Z,1.70
2022-11-20T00:11:32.732Z,1.90
2022-11-20T00:14:03.154Z,1.90
2022-11-20T00:16:41.198Z,1.90
2022-11-20T00:19:08.656Z,1.80
2022-11-20T00:21:37.252Z,1.80
2022-11-20T00:24:04.756Z,1.80
2022-11-20T00:26:32.205Z,1.80
2022-11-20T00:29:02.328Z,1.80
2022-11-20T00:31:31.614Z,1.70
2022-11-20T00:33:59.340Z,1.70
2022-11-20T00:36:28.749Z,1.70
2022-11-20T00:38:58.458Z,1.70
2022-11-20T00:41:29.852Z,1.80
2022-11-20T00:44:00.140Z,1.80
2022-11-20T00:46:29.382Z,1.70
2022-11-20T00:49:02.931Z,1.90
2022-11-20T00:51:37.166Z,1.70
2022-11-20T00:54:07.649Z,1.70
2022-11-20T00:56:35.005Z,1.70
2022-11-20T00:59:05.152Z,1.70
2022-11-20T01:01:33.784Z,1.70
2022-11-20T01:04:05.030Z,1.70
2022-11-20T01:06:35.755Z,1.70
2022-11-20T01:09:11.014Z,1.80
2022-11-20T01:11:40.744Z,1.60
2022-11-20T01:14:11.741Z,1.80
2022-11-20T01:16:44.623Z,1.70
2022-11-20T01:19:18.483Z,1.70
2022-11-20T01:21:48.724Z,1.70
2022-11-20T01:24:18.359Z,1.70
2022-11-20T01:26:48.911Z,1.60
2022-11-20T01:29:22.449Z,1.70
2022-11-20T01:31:50.242Z,1.70
2022-11-20T01:34:19.644Z,1.70
2022-11-20T01:36:48.451Z,1.50
2022-11-20T01:39:26.044Z,1.50
2022-11-20T01:42:13.234Z,1.60
2022-11-20T01:44:57.370Z,1.60
2022-11-20T01:47:40.660Z,1.60
2022-11-20T01:50:19.732Z,1.60
2022-11-20T01:52:52.766Z,1.60
2022-11-20T01:55:28.280Z,1.60
2022-11-20T01:57:56.370Z,1.60
2022-11-20T02:00:23.727Z,1.60
2022-11-20T02:03:00.334Z,1.60
2022-11-20T02:05:41.130Z,1.60
2022-11-20T02:08:08.761Z,1.60
2022-11-20T02:10:37.097Z,1.50
2022-11-20T02:13:24.732Z,1.60
2022-11-20T02:15:53.326Z,1.60
2022-11-20T02:18:22.598Z,1.70
2022-11-20T02:20:54.993Z,1.60
2022-11-20T02:23:29.149Z,1.70
2022-11-20T02:25:58.434Z,1.60
2022-11-20T02:28:28.137Z,1.60
2022-11-20T02:30:55.494Z,1.70
2022-11-20T02:33:22.854Z,1.80
2022-11-20T02:35:50.247Z,1.80
2022-11-20T02:38:17.835Z,1.80
2022-11-20T02:40:45.225Z,1.70
2022-11-20T02:43:12.911Z,1.60
2022-11-20T02:45:41.509Z,1.70
2022-11-20T02:48:09.508Z,1.60
2022-11-20T02:50:41.230Z,1.50
2022-11-20T02:53:09.458Z,1.60
2022-11-20T02:55:38.294Z,1.50
2022-11-20T02:58:06.447Z,1.60
2022-11-20T03:00:34.058Z,1.50
2022-11-20T03:03:01.821Z,1.40
2022-11-20T03:05:29.170Z,1.40
2022-11-20T03:07:56.553Z,1.50
2022-11-20T03:10:23.994Z,1.70
2022-11-20T03:12:57.762Z,1.60
2022-11-20T03:15:25.422Z,1.50
2022-11-20T03:17:56.832Z,1.50
2022-11-20T03:20:24.474Z,1.50
2022-11-20T03:22:54.493Z,1.50
2022-11-20T03:25:22.579Z,1.40
2022-11-20T03:27:49.892Z,1.40
2022-11-20T03:30:17.401Z,1.50
2022-11-20T03:32:45.130Z,1.50
2022-11-20T03:35:13.294Z,1.60
2022-11-20T03:37:41.342Z,1.50
2022-11-20T03:40:10.678Z,1.60
2022-11-20T03:42:49.437Z,1.60
2022-11-20T03:45:19.371Z,1.60
2022-11-20T03:47:47.535Z,1.70
2022-11-20T03:50:15.273Z,1.70
2022-11-20T03:52:42.892Z,1.60
2022-11-20T03:55:11.724Z,1.70
2022-11-20T03:57:40.273Z,1.70
2022-11-20T04:00:08.152Z,1.70
2022-11-20T04:02:35.485Z,1.70
2022-11-20T04:05:02.868Z,1.80
2022-11-20T04:07:30.250Z,1.80
2022-11-20T04:09:57.662Z,1.70
2022-11-20T04:12:25.020Z,1.80
2022-11-20T04:14:52.350Z,1.80
2022-11-20T04:17:19.698Z,1.80
2022-11-20T04:19:47.278Z,1.70
2022-11-20T04:22:14.752Z,1.80
2022-11-20T04:24:42.592Z,1.60
2022-11-20T04:27:10.288Z,1.60
2022-11-20T04:29:37.628Z,1.70
2022-11-20T04:32:05.166Z,1.70
2022-11-20T04:34:32.528Z,1.80
2022-11-20T04:36:59.877Z,1.70
2022-11-20T04:39:27.294Z,1.70
2022-11-20T04:42:14.621Z,1.70
2022-11-20T04:44:42.278Z,1.70
2022-11-20T04:47:11.381Z,1.70
2022-11-20T04:49:38.772Z,1.70
2022-11-20T04:52:07.116Z,1.70
2022-11-20T04:54:34.463Z,1.70
2022-11-20T04:57:01.806Z,1.70
2022-11-20T04:59:30.288Z,1.90
2022-11-20T05:01:58.056Z,1.70
2022-11-20T05:04:25.443Z,1.70
2022-11-20T05:06:52.790Z,1.70
2022-11-20T05:09:20.267Z,1.80
2022-11-20T05:11:51.363Z,1.80
2022-11-20T05:14:19.093Z,1.80
2022-11-20T05:16:47.283Z,1.80
2022-11-20T05:19:14.707Z,1.80
2022-11-20T05:21:42.233Z,1.90
2022-11-20T05:24:09.841Z,1.90
2022-11-20T05:26:37.217Z,1.90
2022-11-20T05:29:04.620Z,1.80
2022-11-20T05:31:31.942Z,1.80
2022-11-20T05:34:00.262Z,1.90
2022-11-20T05:36:29.184Z,1.80
2022-11-20T05:39:01.584Z,1.90
2022-11-20T05:41:30.803Z,1.80
2022-11-20T05:43:59.850Z,1.80
2022-11-20T05:46:29.060Z,1.80
2022-11-20T05:48:58.910Z,1.90
2022-11-20T05:51:28.123Z,1.90
2022-11-20T05:54:00.047Z,1.90
2022-11-20T05:56:28.476Z,1.90
2022-11-20T05:58:56.900Z,2.10
2022-11-20T06:01:26.352Z,2.00
2022-11-20T06:03:54.603Z,2.00
2022-11-20T06:06:23.347Z,1.90
2022-11-20T06:08:50.954Z,1.80
2022-11-20T06:11:19.244Z,1.80
2022-11-20T06:13:47.699Z,1.90
2022-11-20T06:16:18.555Z,2.00
2022-11-20T06:18:46.311Z,1.90
2022-11-20T06:21:19.036Z,1.90
2022-11-20T06:23:47.526Z,1.90
2022-11-20T06:26:20.127Z,1.90
2022-11-20T06:28:48.437Z,1.90
2022-11-20T06:31:18.357Z,1.90
2022-11-20T06:33:46.167Z,2.00
2022-11-20T06:36:15.642Z,1.90
2022-11-20T06:38:43.429Z,1.90
2022-11-20T06:41:22.478Z,1.90
2022-11-20T06:43:50.256Z,1.90
2022-11-20T06:46:21.931Z,1.80
2022-11-20T06:48:51.150Z,1.80
2022-11-20T06:51:18.996Z,1.80
2022-11-20T06:53:46.571Z,1.90
2022-11-20T06:56:14.256Z,1.90
2022-11-20T06:58:41.603Z,1.90
2022-11-20T07:01:12.363Z,1.80
2022-11-20T07:03:40.858Z,1.90
2022-11-20T07:06:09.065Z,1.80
2022-11-20T07:08:36.879Z,1.80
2022-11-20T07:11:07.500Z,1.90
2022-11-20T07:13:35.016Z,1.80
2022-11-20T07:16:08.708Z,1.80
2022-11-20T07:18:39.040Z,1.80
2022-11-20T07:21:08.916Z,1.90
2022-11-20T07:23:39.251Z,1.90
2022-11-20T07:26:11.589Z,2.00
2022-11-20T07:28:39.477Z,2.00
2022-11-20T07:31:08.994Z,2.00
2022-11-20T07:33:39.014Z,1.90
2022-11-20T07:36:08.796Z,2.00
2022-11-20T07:38:38.261Z,2.00
2022-11-20T07:41:05.838Z,2.00
2022-11-20T07:43:39.780Z,2.00
2022-11-20T07:46:09.726Z,2.00
2022-11-20T07:48:38.139Z,1.90
2022-11-20T07:51:05.537Z,1.90
2022-11-20T07:53:34.899Z,1.80
2022-11-20T07:56:03.608Z,1.80
2022-11-20T07:58:34.187Z,1.90
2022-11-20T08:01:08.604Z,2.00
2022-11-20T08:03:39.012Z,1.90
2022-11-20T08:06:06.891Z,2.00
2022-11-20T08:08:38.861Z,1.90
2022-11-20T08:11:29.824Z,1.80
2022-11-20T08:14:12.770Z,1.70
2022-11-20T08:16:49.665Z,1.80
2022-11-20T08:19:19.119Z,1.90
2022-11-20T08:21:46.702Z,1.90
2022-11-20T08:24:14.192Z,2.00
2022-11-20T08:26:42.259Z,2.00
2022-11-20T08:29:09.684Z,1.90
2022-11-20T08:31:37.181Z,2.10
2022-11-20T08:34:09.274Z,2.10
2022-11-20T08:36:37.880Z,2.30
2022-11-20T08:39:05.211Z,2.30
2022-11-20T08:41:38.411Z,2.20
2022-11-20T08:44:08.711Z,2.30
2022-11-20T08:46:41.016Z,2.40
2022-11-20T08:49:10.676Z,2.40
2022-11-20T08:51:41.206Z,2.30
2022-11-20T08:54:11.467Z,2.30
2022-11-20T08:56:41.201Z,2.40
2022-11-20T08:59:51.029Z,2.40
2022-11-20T09:02:00.508Z,2.50
2022-11-20T09:04:27.891Z,2.50
2022-11-20T09:06:55.227Z,2.40
2022-11-20T09:09:22.925Z,2.50
2022-11-20T09:11:51.341Z,2.50
2022-11-20T09:14:18.695Z,2.50
2022-11-20T09:16:47.479Z,2.60
2022-11-20T09:22:04.128Z,2.50
2022-11-20T09:24:31.503Z,2.60
2022-11-20T09:26:58.913Z,2.50
2022-11-20T09:29:26.233Z,2.50
2022-11-20T09:31:53.656Z,2.50
2022-11-20T09:34:20.969Z,2.40
2022-11-20T09:36:48.312Z,2.50
2022-11-20T09:39:16.245Z,2.40
2022-11-20T09:42:00.007Z,2.50
2022-11-20T09:44:27.379Z,2.40
2022-11-20T09:46:58.216Z,2.50
2022-11-20T09:50:11.010Z,2.60
2022-11-20T09:52:47.507Z,2.60
2022-11-20T09:55:16.604Z,2.60
2022-11-20T09:57:49.091Z,2.70
2022-11-20T10:00:21.420Z,2.80
2022-11-20T10:03:34.242Z,2.70
2022-11-20T10:06:06.035Z,2.70
2022-11-20T10:08:40.322Z,2.60
2022-11-20T10:11:33.828Z,2.70
2022-11-20T10:14:27.628Z,2.70
2022-11-20T10:17:09.356Z,2.70
2022-11-20T10:20:13.879Z,2.80
2022-11-20T10:23:06.369Z,2.70
2022-11-20T10:26:24.357Z,2.70
2022-11-20T10:29:06.044Z,2.70
2022-11-20T10:31:46.263Z,2.90
2022-11-20T10:34:22.603Z,3.00
2022-11-20T10:37:04.876Z,3.10
2022-11-20T10:40:40.174Z,3.20
2022-11-20T10:43:22.764Z,3.20
2022-11-20T10:46:05.255Z,3.30
2022-11-20T10:48:33.574Z,3.20
2022-11-20T10:51:23.249Z,3.30
2022-11-20T10:54:18.535Z,3.40
2022-11-20T10:56:51.240Z,3.60
2022-11-20T10:59:57.828Z,3.60
2022-11-20T11:02:33.545Z,3.60
2022-11-20T11:05:14.402Z,3.40
2022-11-20T11:07:43.177Z,3.50
2022-11-20T11:10:25.316Z,3.40
2022-11-20T11:12:54.262Z,3.50
2022-11-20T11:15:42.636Z,3.40
2022-11-20T11:18:12.594Z,3.40
2022-11-20T11:20:40.046Z,3.40
2022-11-20T11:23:42.544Z,3.50
2022-11-20T11:26:24.417Z,3.40
2022-11-20T11:29:03.759Z,3.50
2022-11-20T11:31:35.960Z,3.60
2022-11-20T11:34:13.638Z,3.60
2022-11-20T11:36:42.030Z,3.60
2022-11-20T11:39:17.758Z,3.70
2022-11-20T11:41:46.013Z,3.70
2022-11-20T11:45:04.383Z,3.80
2022-11-20T11:47:38.885Z,3.90
2022-11-20T11:50:22.607Z,4.10
2022-11-20T11:52:53.527Z,4.60
2022-11-20T11:55:44.304Z,5.20
2022-11-20T11:58:24.908Z,5.90
2022-11-20T12:01:30.175Z,5.90
2022-11-20T12:04:20.499Z,6.40
2022-11-20T12:06:52.927Z,8.50
2022-11-20T12:09:25.033Z,9.30
2022-11-20T12:12:18.779Z,9.00
2022-11-20T12:14:51.456Z,7.70
2022-11-20T12:17:19.128Z,6.70
2022-11-20T12:19:46.506Z,6.50
2022-11-20T12:22:32.799Z,6.20
2022-11-20T12:25:17.092Z,5.90
2022-11-20T12:28:12.382Z,5.80
2022-11-20T12:31:04.888Z,5.50
2022-11-20T12:34:25.090Z,5.60
2022-11-20T12:37:08.568Z,5.30
2022-11-20T12:39:44.824Z,5.40
2022-11-20T12:42:52.973Z,5.60
2022-11-20T12:45:56.538Z,5.60
2022-11-20T12:48:51.644Z,5.70
2022-11-20T12:51:56.221Z,5.80
2022-11-20T12:54:54.310Z,5.70
2022-11-20T12:57:43.948Z,5.60
2022-11-20T13:00:16.418Z,5.80
2022-11-20T13:03:27.613Z,5.90
2022-11-20T13:06:16.430Z,6.60
2022-11-20T13:08:56.550Z,7.50
2022-11-20T13:11:49.853Z,8.20
2022-11-20T13:14:40.927Z,8.00
2022-11-20T13:17:08.768Z,8.20
2022-11-20T13:19:36.994Z,8.90
2022-11-20T13:22:06.275Z,8.90
2022-11-20T13:24:34.491Z,9.10
2022-11-20T13:27:10.162Z,8.20
2022-11-20T13:29:47.212Z,7.80
2022-11-20T13:32:19.090Z,7.60
2022-11-20T13:34:55.060Z,7.40
2022-11-20T13:37:27.063Z,7.00
2022-11-20T13:40:06.196Z,7.00
2022-11-20T13:42:40.818Z,7.00
2022-11-20T13:45:33.614Z,7.10
2022-11-20T13:48:20.493Z,7.60
2022-11-20T13:50:59.702Z,8.70
2022-11-20T13:54:17.357Z,8.60
2022-11-20T13:56:54.660Z,9.10
2022-11-20T13:59:42.211Z,8.70
2022-11-20T14:02:19.598Z,8.30
2022-11-20T14:04:51.000Z,7.70
2022-11-20T14:07:21.138Z,7.50
2022-11-20T14:09:58.948Z,7.30
2022-11-20T14:12:34.580Z,7.30
2022-11-20T14:15:05.253Z,7.00
2022-11-20T14:17:34.922Z,7.00
2022-11-20T14:20:14.995Z,7.00
2022-11-20T14:22:52.975Z,6.80
2022-11-20T14:25:28.637Z,6.90
2022-11-20T14:28:04.834Z,6.80
2022-11-20T14:30:40.835Z,6.70
2022-11-20T14:33:13.655Z,6.70
2022-11-20T14:35:51.025Z,6.60
2022-11-20T14:38:23.646Z,6.60
2022-11-20T14:40:52.290Z,6.50
2022-11-20T14:43:22.627Z,6.40
2022-11-20T14:46:10.022Z,6.30
2022-11-20T14:48:38.583Z,6.20
2022-11-20T14:51:12.415Z,6.20
2022-11-20T14:53:41.353Z,6.10
2022-11-20T14:56:10.904Z,6.10
2022-11-20T14:58:40.012Z,5.90
2022-11-20T15:01:12.600Z,5.80
2022-11-20T15:03:41.983Z,5.60
2022-11-20T15:06:13.573Z,5.60
2022-11-20T15:08:52.642Z,5.50
2022-11-20T15:11:27.005Z,5.40
2022-11-20T15:13:54.699Z,5.40
2022-11-20T15:16:25.825Z,5.30
2022-11-20T15:18:53.817Z,5.10
2022-11-20T15:21:22.739Z,5.10
2022-11-20T15:23:51.072Z,5.00
2022-11-20T15:26:27.947Z,4.90
2022-11-20T15:28:56.574Z,4.90
2022-11-20T15:31:25.264Z,4.80
2022-11-20T15:33:53.103Z,4.70
2022-11-20T15:36:22.917Z,4.60
2022-11-20T15:38:51.283Z,4.50
2022-11-20T15:41:19.731Z,4.50
2022-11-20T15:43:49.646Z,4.40
2022-11-20T15:46:28.210Z,4.30
2022-11-20T15:48:58.817Z,4.30
2022-11-20T15:51:31.245Z,4.20
2022-11-20T15:54:00.365Z,4.10
2022-11-20T15:56:28.750Z,4.00
2022-11-20T15:58:56.741Z,4.00
2022-11-20T16:01:25.054Z,4.00
2022-11-20T16:03:52.725Z,3.80
2022-11-20T16:06:20.987Z,3.80
2022-11-20T16:08:49.386Z,3.80
2022-11-20T16:11:19.942Z,3.70
2022-11-20T16:14:07.231Z,3.60
2022-11-20T16:16:38.228Z,3.50
2022-11-20T16:19:07.685Z,3.40
2022-11-20T16:21:40.995Z,3.40
2022-11-20T16:24:14.675Z,3.30
2022-11-20T16:26:44.584Z,3.20
2022-11-20T16:29:17.165Z,3.10
2022-11-20T16:31:49.194Z,3.10
2022-11-20T16:34:18.356Z,3.20
2022-11-20T16:36:47.041Z,3.00
2022-11-20T16:39:22.084Z,3.00
2022-11-20T16:41:51.953Z,2.90
2022-11-20T16:44:22.166Z,2.90
2022-11-20T16:46:52.253Z,3.00
2022-11-20T16:49:26.264Z,3.00
2022-11-20T16:51:54.460Z,3.00
2022-11-20T16:54:22.822Z,3.10
2022-11-20T16:56:55.756Z,3.10
2022-11-20T16:59:24.574Z,3.00
2022-11-20T17:01:53.056Z,3.00
2022-11-20T17:04:22.958Z,2.90
2022-11-20T17:06:52.482Z,2.90
2022-11-20T17:09:20.628Z,2.90
2022-11-20T17:11:55.615Z,2.90
2022-11-20T17:14:23.909Z,2.80
2022-11-20T17:16:52.827Z,2.70
2022-11-20T17:19:24.173Z,2.80
2022-11-20T17:21:52.237Z,2.90
2022-11-20T17:24:20.813Z,2.90
2022-11-20T17:26:51.168Z,2.80
2022-11-20T17:29:25.442Z,2.80
2022-11-20T17:31:57.582Z,2.90
2022-11-20T17:34:27.987Z,2.90
2022-11-20T17:36:59.807Z,2.80
2022-11-20T17:39:28.947Z,2.90
2022-11-20T17:42:18.384Z,2.90
2022-11-20T17:44:47.847Z,2.90
2022-11-20T17:47:17.028Z,2.90
2022-11-20T17:49:45.389Z,2.80
2022-11-20T17:52:14.256Z,2.90
2022-11-20T17:54:43.678Z,3.00
2022-11-20T17:57:30.028Z,3.00
2022-11-20T17:59:58.979Z,3.00
2022-11-20T18:02:34.424Z,3.10
2022-11-20T18:05:05.707Z,3.20
2022-11-20T18:07:41.299Z,3.20
2022-11-20T18:10:10.339Z,3.20
2022-11-20T18:12:41.023Z,3.10
2022-11-20T18:15:10.859Z,3.10
2022-11-20T18:17:42.595Z,3.20
2022-11-20T18:23:00.881Z,3.20
2022-11-20T18:25:31.106Z,3.30
2022-11-20T18:28:00.339Z,3.30
2022-11-20T18:30:30.435Z,3.30
2022-11-20T18:32:58.932Z,3.30
2022-11-20T18:35:30.261Z,3.20
2022-11-20T18:37:59.627Z,3.20
2022-11-20T18:40:30.455Z,3.20
2022-11-20T18:43:21.066Z,3.30
2022-11-20T18:45:50.075Z,3.20
2022-11-20T18:48:18.200Z,3.20
2022-11-20T18:50:46.832Z,3.30
2022-11-20T18:53:20.510Z,3.30
2022-11-20T18:55:49.929Z,3.40
2022-11-20T18:58:18.619Z,3.30
2022-11-20T19:00:47.129Z,3.40
2022-11-20T19:03:15.683Z,3.40
2022-11-20T19:05:44.320Z,3.30
2022-11-20T19:08:13.889Z,3.20
2022-11-20T19:10:42.305Z,3.30
2022-11-20T19:13:12.405Z,3.30
2022-11-20T19:15:43.076Z,3.30
2022-11-20T19:18:12.477Z,3.30
2022-11-20T19:20:41.040Z,3.20
2022-11-20T19:23:09.965Z,3.20
2022-11-20T19:25:41.010Z,3.10
2022-11-20T19:28:09.695Z,3.10
2022-11-20T19:30:39.151Z,3.00
2022-11-20T19:33:09.157Z,3.10
2022-11-20T19:35:42.582Z,3.10
2022-11-20T19:38:12.498Z,3.10
2022-11-20T19:40:41.471Z,3.10
2022-11-20T19:43:12.757Z,3.10
2022-11-20T19:45:43.856Z,3.10
2022-11-20T19:48:13.483Z,3.10
2022-11-20T19:50:42.016Z,3.10
2022-11-20T19:53:11.791Z,3.10
2022-11-20T19:55:44.814Z,3.10
2022-11-20T19:58:13.773Z,3.10
2022-11-20T20:00:41.928Z,3.00
2022-11-20T20:03:11.369Z,2.90
2022-11-20T20:05:42.333Z,2.90
2022-11-20T20:08:17.095Z,3.00
2022-11-20T20:10:46.165Z,2.90
2022-11-20T20:13:14.423Z,3.00
2022-11-20T20:15:42.541Z,2.80
2022-11-20T20:18:11.699Z,2.80
2022-11-20T20:20:42.159Z,2.80
2022-11-20T20:23:12.495Z,2.70
2022-11-20T20:25:41.052Z,2.70
2022-11-20T20:28:09.343Z,2.60
2022-11-20T20:30:38.834Z,2.60
2022-11-20T20:33:08.022Z,2.60
2022-11-20T20:35:42.675Z,2.50
2022-11-20T20:38:12.048Z,2.60
2022-11-20T20:40:51.500Z,2.60
2022-11-20T20:43:23.264Z,2.60
2022-11-20T20:45:52.572Z,2.70
2022-11-20T20:48:23.443Z,2.60
2022-11-20T20:51:03.706Z,2.70
2022-11-20T20:53:32.072Z,2.70
2022-11-20T20:56:02.543Z,2.80
2022-11-20T20:58:31.368Z,2.70
2022-11-20T21:01:14.092Z,2.80
2022-11-20T21:03:42.520Z,2.80
2022-11-20T21:06:11.983Z,2.80
2022-11-20T21:08:44.973Z,2.90
2022-11-20T21:11:18.433Z,2.90
2022-11-20T21:13:47.880Z,2.90
2022-11-20T21:16:17.376Z,2.90
2022-11-20T21:18:45.416Z,2.90
2022-11-20T21:21:32.981Z,2.90
2022-11-20T21:24:00.761Z,3.00
2022-11-20T21:26:30.350Z,3.00
2022-11-20T21:28:58.814Z,3.10
2022-11-20T21:31:27.364Z,3.10
2022-11-20T21:33:57.207Z,3.10
2022-11-20T21:36:27.335Z,3.10
2022-11-20T21:38:56.150Z,3.10
2022-11-20T21:41:25.230Z,3.10
2022-11-20T21:46:46.399Z,3.10
2022-11-20T21:49:15.442Z,3.10
2022-11-20T21:51:43.207Z,3.10
2022-11-20T21:54:11.753Z,3.10
2022-11-20T21:56:42.581Z,3.10
2022-11-20T21:59:13.027Z,3.00
2022-11-20T22:01:41.889Z,2.90
2022-11-20T22:04:14.359Z,2.90
2022-11-20T22:06:41.696Z,2.80
2022-11-20T22:09:10.790Z,2.80
2022-11-20T22:11:39.283Z,2.70
2022-11-20T22:14:22.011Z,2.70
2022-11-20T22:16:51.110Z,2.60
2022-11-20T22:19:22.655Z,2.70
2022-11-20T22:21:52.869Z,2.70
2022-11-20T22:24:21.831Z,2.50
2022-11-20T22:26:50.373Z,2.40
2022-11-20T22:29:24.755Z,2.30
2022-11-20T22:31:53.670Z,2.30
2022-11-20T22:34:21.423Z,2.40
2022-11-20T22:36:49.113Z,2.40
2022-11-20T22:39:16.545Z,2.50
2022-11-20T22:41:43.959Z,2.50
2022-11-20T22:44:16.344Z,2.40
2022-11-20T22:46:43.757Z,2.50
2022-11-20T22:49:11.237Z,2.50
2022-11-20T22:51:41.289Z,2.50
2022-11-20T22:54:11.544Z,2.50
2022-11-20T22:56:39.150Z,2.40
2022-11-20T22:59:06.541Z,2.50
2022-11-20T23:01:36.756Z,2.40
2022-11-20T23:04:07.127Z,2.40
2022-11-20T23:06:34.653Z,2.40
2022-11-20T23:09:03.787Z,2.60
2022-11-20T23:11:35.241Z,2.40
2022-11-20T23:14:05.509Z,2.40
2022-11-20T23:16:33.952Z,2.30
2022-11-20T23:19:07.947Z,2.30
2022-11-20T23:21:37.238Z,2.30
2022-11-20T23:24:05.421Z,2.30
2022-11-20T23:26:35.975Z,2.30
2022-11-20T23:29:04.789Z,2.30
2022-11-20T23:31:34.236Z,2.30
2022-11-20T23:34:02.319Z,2.20
2022-11-20T23:36:33.961Z,2.20
2022-11-20T23:39:02.159Z,2.40
2022-11-20T23:41:30.161Z,2.40
2022-11-20T23:43:57.657Z,2.40
2022-11-20T23:46:27.446Z,2.40
2022-11-20T23:48:57.380Z,2.30
2022-11-20T23:51:27.321Z,2.30
2022-11-20T23:54:00.474Z,2.30
2022-11-20T23:56:31.118Z,2.30
2022-11-20T23:58:59.102Z,2.20
